createdAt,value
2019-03-26T10:12:48.949Z,27.80
2019-03-26T10:22:50.247Z,27.20
2019-03-26T10:32:51.573Z,25.90
2019-03-26T10:42:52.918Z,26.60
2019-03-26T16:51:31.976Z,39.80
2019-03-26T17:01:33.274Z,41.60
2019-03-26T17:11:34.549Z,41.20
2019-03-26T17:21:36.925Z,42.70
2019-03-26T17:31:38.237Z,43.40
2019-03-26T17:41:45.469Z,42.20
2019-03-26T17:51:50.335Z,43.70
2019-03-26T18:01:54.394Z,47.60
2019-03-26T18:11:53.717Z,47.60
2019-03-26T18:21:55.015Z,48.20
2019-03-26T18:31:56.310Z,48.50
2019-03-26T18:41:57.664Z,51.30
2019-03-26T18:51:58.948Z,52.00
2019-03-26T19:02:04.400Z,54.50
2019-03-26T19:12:05.693Z,54.50
2019-03-26T19:22:06.986Z,56.10
2019-03-26T19:32:08.307Z,61.10
2019-03-26T19:42:10.605Z,72.00
2019-03-26T19:52:13.614Z,83.40
2019-03-26T20:02:14.925Z,91.00
2019-03-26T20:22:23.486Z,98.80
2019-03-26T20:32:24.973Z,93.80
2019-03-26T20:42:26.279Z,97.20
2019-03-26T20:52:27.545Z,97.90
2019-03-26T21:02:28.830Z,99.90
2019-03-26T21:12:31.229Z,99.90
2019-03-26T21:22:33.315Z,99.90
2019-03-26T21:32:34.617Z,99.90
2019-03-26T21:42:36.187Z,99.90
2019-03-26T21:52:37.638Z,99.90
2019-03-26T22:02:38.938Z,99.90
2019-03-26T22:12:42.831Z,99.90
2019-03-26T22:22:44.451Z,99.90
2019-03-26T22:32:45.970Z,99.90
2019-03-26T22:42:48.855Z,99.90
2019-03-26T22:52:50.488Z,99.90
2019-03-26T23:02:52.656Z,99.90
2019-03-26T23:12:54.220Z,99.90
2019-03-26T23:22:56.775Z,99.90
2019-03-26T23:32:58.257Z,99.90
2019-03-26T23:42:59.681Z,99.90
2019-03-26T23:53:04.119Z,99.90
